Time,TemperatureF,DewpointF,PressureIn,WindDirection,WindDirectionDegrees,WindSpeedMPH,WindSpeedGustMPH,Humidity,HourlyPrecipIn,Conditions,Clouds,dailyrainin,SoftwareType,DateUTC
2013-01-16 00:00:00,34.2,14.6,30.57,East,96,13.0,22.0,44,0.00,,SCT,0.00,VWS V14.01,2013-01-16 08:00:00,
2013-01-16 00:03:00,34.2,14.6,30.57,East,80,7.0,19.0,44,0.00,,SCT,0.00,VWS V14.01,2013-01-16 08:03:00,
2013-01-16 00:08:00,34.3,15.2,30.57,ENE,69,15.0,22.0,45,0.00,,SCT,0.00,VWS V14.01,2013-01-16 08:08:00,
2013-01-16 00:13:00,34.3,14.7,30.57,East,101,13.0,22.0,44,0.00,,SCT,0.00,VWS V14.01,2013-01-16 08:13:00,
2013-01-16 00:18:00,34.4,15.3,30.56,ENE,61,13.0,24.0,45,0.00,,SCT,0.00,VWS V14.01,2013-01-16 08:18:00,
2013-01-16 00:23:00,34.5,15.4,30.56,East,88,14.0,24.0,45,0.00,,SCT,0.00,VWS V14.01,2013-01-16 08:23:00,
2013-01-16 00:28:00,34.5,15.4,30.56,ESE,102,16.0,24.0,45,0.00,,SCT,0.00,VWS V14.01,2013-01-16 08:28:00,
2013-01-16 00:33:00,34.7,15.6,30.56,East,96,9.0,18.0,45,0.00,,SCT,0.00,VWS V14.01,2013-01-16 08:33:00,
2013-01-16 00:38:00,34.8,15.6,30.57,ENE,71,15.0,20.0,45,0.00,,SCT,0.00,VWS V14.01,2013-01-16 08:38:00,
2013-01-16 00:43:00,35.0,15.8,30.57,ESE,107,15.0,21.0,45,0.00,,SCT,0.00,VWS V14.01,2013-01-16 08:43:00,
2013-01-16 00:45:00,35.2,16.0,30.57,East,98,15.0,21.0,45,0.00,,SCT,0.00,VWS V14.01,2013-01-16 08:45:00,
2013-01-16 00:48:00,35.4,15.7,30.56,East,82,18.0,18.0,44,0.00,,SCT,0.00,VWS V14.01,2013-01-16 08:48:00,
2013-01-16 00:53:00,35.5,15.8,30.56,East,97,21.0,25.0,44,0.00,,SCT,0.00,VWS V14.01,2013-01-16 08:53:00,
2013-01-16 00:58:00,35.6,15.9,30.55,East,94,14.0,25.0,44,0.00,,SCT,0.00,VWS V14.01,2013-01-16 08:58:00,
2013-01-16 01:03:00,35.6,15.9,30.56,East,80,14.0,25.0,44,0.00,,SCT,0.00,VWS V14.01,2013-01-16 09:03:00,
2013-01-16 01:08:00,35.6,15.9,30.56,ESE,111,11.0,25.0,44,0.00,,SCT,0.00,VWS V14.01,2013-01-16 09:08:00,
2013-01-16 01:13:00,35.6,15.9,30.56,East,80,22.0,25.0,44,0.00,,SCT,0.00,VWS V14.01,2013-01-16 09:13:00,
2013-01-16 01:15:00,35.5,16.3,30.56,ENE,71,18.0,25.0,45,0.00,,SCT,0.00,VWS V14.01,2013-01-16 09:15:00,
2013-01-16 01:18:00,35.5,16.3,30.56,ENE,70,14.0,24.0,45,0.00,,SCT,0.00,VWS V14.01,2013-01-16 09:18:00,
2013-01-16 01:23:00,35.4,16.2,30.55,East,90,15.0,24.0,45,0.00,,SCT,0.00,VWS V14.01,2013-01-16 09:23:00,
2013-01-16 01:28:00,35.3,15.6,30.55,East,82,12.0,24.0,44,0.00,,SCT,0.00,VWS V14.01,2013-01-16 09:28:00,
2013-01-16 01:30:00,35.3,16.1,30.55,ENE,76,13.0,24.0,45,0.00,,SCT,0.00,VWS V14.01,2013-01-16 09:30:00,
2013-01-16 01:33:00,35.3,15.6,30.54,ENE,69,11.0,19.0,44,0.00,,SCT,0.00,VWS V14.01,2013-01-16 09:33:00,
2013-01-16 01:38:00,35.3,15.6,30.54,ENE,59,14.0,24.0,44,0.00,,SCT,0.00,VWS V14.01,2013-01-16 09:38:00,
2013-01-16 01:43:00,35.3,16.6,30.54,East,84,12.0,24.0,46,0.00,,SCT,0.00,VWS V14.01,2013-01-16 09:43:00,
2013-01-16 01:45:00,35.3,16.1,30.55,East,93,14.0,24.0,45,0.00,,SCT,0.00,VWS V14.01,2013-01-16 09:45:00,
2013-01-16 01:48:00,35.3,16.1,30.54,East,84,10.0,21.0,45,0.00,,SCT,0.00,VWS V14.01,2013-01-16 09:48:00,
2013-01-16 01:53:00,35.3,15.6,30.55,East,81,15.0,21.0,44,0.00,,SCT,0.00,VWS V14.01,2013-01-16 09:53:00,
2013-01-16 01:58:00,35.3,16.1,30.55,East,88,11.0,23.0,45,0.00,,SCT,0.00,VWS V14.01,2013-01-16 09:58:00,
2013-01-16 02:00:00,35.3,15.6,30.55,East,93,9.0,23.0,44,0.00,,SCT,0.00,VWS V14.01,2013-01-16 10:00:00,
2013-01-16 02:03:00,35.3,16.1,30.55,East,92,11.0,18.0,45,0.00,,SCT,0.00,VWS V14.01,2013-01-16 10:03:00,
2013-01-16 02:08:00,35.2,16.0,30.54,East,90,9.0,18.0,45,0.00,,SCT,0.00,VWS V14.01,2013-01-16 10:08:00,
2013-01-16 02:13:00,35.2,15.5,30.54,ENE,64,10.0,19.0,44,0.00,,SCT,0.00,VWS V14.01,2013-01-16 10:13:00,
2013-01-16 02:15:00,35.2,16.0,30.54,East,90,14.0,19.0,45,0.00,,SCT,0.00,VWS V14.01,2013-01-16 10:15:00,
2013-01-16 02:18:00,35.2,16.0,30.54,ENE,59,11.0,15.0,45,0.00,,SCT,0.00,VWS V14.01,2013-01-16 10:18:00,
2013-01-16 02:23:00,35.2,16.0,30.54,ENE,77,13.0,19.0,45,0.00,,SCT,0.00,VWS V14.01,2013-01-16 10:23:00,
2013-01-16 02:28:00,35.1,15.9,30.54,East,98,9.0,19.0,45,0.00,,SCT,0.00,VWS V14.01,2013-01-16 10:28:00,
2013-01-16 02:30:00,35.1,15.9,30.54,East,94,15.0,19.0,45,0.00,,SCT,0.00,VWS V14.01,2013-01-16 10:30:00,
2013-01-16 02:33:00,35.0,15.8,30.54,East,88,12.0,19.0,45,0.00,,SCT,0.00,VWS V14.01,2013-01-16 10:33:00,
2013-01-16 02:38:00,35.0,16.3,30.54,East,86,10.0,19.0,46,0.00,,SCT,0.00,VWS V14.01,2013-01-16 10:38:00,
2013-01-16 02:43:00,35.1,16.4,30.54,East,80,17.0,19.0,46,0.00,,SCT,0.00,VWS V14.01,2013-01-16 10:43:00,
2013-01-16 02:45:00,35.1,16.4,30.54,ENE,76,18.0,19.0,46,0.00,,SCT,0.00,VWS V14.01,2013-01-16 10:45:00,
2013-01-16 02:48:00,35.2,16.5,30.53,East,101,19.0,22.0,46,0.00,,SCT,0.00,VWS V14.01,2013-01-16 10:48:00,
2013-01-16 02:53:00,35.5,16.8,30.53,ENE,78,19.0,22.0,46,0.00,,SCT,0.00,VWS V14.01,2013-01-16 10:53:00,
2013-01-16 02:58:00,35.8,17.1,30.53,East,93,14.0,22.0,46,0.00,,SCT,0.00,VWS V14.01,2013-01-16 10:58:00,
2013-01-16 03:00:00,35.9,16.6,30.53,East,96,21.0,22.0,45,0.00,,SCT,0.00,VWS V14.01,2013-01-16 11:00:00,
2013-01-16 03:03:00,36.1,16.8,30.53,East,101,16.0,21.0,45,0.00,,SCT,0.00,VWS V14.01,2013-01-16 11:03:00,
2013-01-16 03:08:00,36.2,16.9,30.53,East,84,13.0,22.0,45,0.00,,SCT,0.00,VWS V14.01,2013-01-16 11:08:00,
2013-01-16 03:13:00,36.4,17.1,30.53,ENE,75,18.0,22.0,45,0.00,,SCT,0.00,VWS V14.01,2013-01-16 11:13:00,
2013-01-16 03:18:00,36.5,16.7,30.52,ENE,61,19.0,23.0,44,0.00,,SCT,0.00,VWS V14.01,2013-01-16 11:18:00,
2013-01-16 03:23:00,36.5,16.7,30.51,ESE,109,15.0,27.0,44,0.00,,SCT,0.00,VWS V14.01,2013-01-16 11:23:00,
2013-01-16 03:28:00,36.4,16.6,30.51,East,94,16.0,27.0,44,0.00,,SCT,0.00,VWS V14.01,2013-01-16 11:28:00,
2013-01-16 03:30:00,36.3,16.5,30.52,East,93,15.0,27.0,44,0.00,,SCT,0.00,VWS V14.01,2013-01-16 11:30:00,
2013-01-16 03:33:00,36.2,16.4,30.52,ENE,77,13.0,22.0,44,0.00,,SCT,0.00,VWS V14.01,2013-01-16 11:33:00,
2013-01-16 03:38:00,36.1,16.8,30.51,East,94,15.0,22.0,45,0.00,,SCT,0.00,VWS V14.01,2013-01-16 11:38:00,
2013-01-16 03:43:00,35.8,16.0,30.51,ENE,69,13.0,24.0,44,0.00,,SCT,0.00,VWS V14.01,2013-01-16 11:43:00,
2013-01-16 03:45:00,35.7,15.9,30.52,East,81,17.0,24.0,44,0.00,,SCT,0.00,VWS V14.01,2013-01-16 11:45:00,
2013-01-16 03:48:00,35.6,16.4,30.51,ENE,63,15.0,22.0,45,0.00,,SCT,0.00,VWS V14.01,2013-01-16 11:48:00,
2013-01-16 03:53:00,35.5,16.8,30.51,East,80,20.0,24.0,46,0.00,,SCT,0.00,VWS V14.01,2013-01-16 11:53:00,
2013-01-16 03:58:00,35.6,16.9,30.51,ENE,75,19.0,24.0,46,0.00,,SCT,0.00,VWS V14.01,2013-01-16 11:58:00,
2013-01-16 04:00:00,35.6,16.4,30.50,East,91,22.0,24.0,45,0.00,,SCT,0.00,VWS V14.01,2013-01-16 12:00:00,
2013-01-16 04:03:00,35.7,16.5,30.50,East,80,12.0,24.0,45,0.00,,SCT,0.00,VWS V14.01,2013-01-16 12:03:00,
2013-01-16 04:08:00,35.7,16.5,30.50,East,91,14.0,24.0,45,0.00,,SCT,0.00,VWS V14.01,2013-01-16 12:08:00,
2013-01-16 04:13:00,35.5,16.3,30.50,East,82,15.0,24.0,45,0.00,,SCT,0.00,VWS V14.01,2013-01-16 12:13:00,
2013-01-16 04:15:00,35.5,16.3,30.51,East,82,14.0,24.0,45,0.00,,SCT,0.00,VWS V14.01,2013-01-16 12:15:00,
2013-01-16 04:18:00,35.3,16.1,30.51,ENE,75,17.0,22.0,45,0.00,,SCT,0.00,VWS V14.01,2013-01-16 12:18:00,
2013-01-16 04:23:00,35.2,18.0,30.50,East,90,21.0,23.0,49,0.00,,SCT,0.00,VWS V14.01,2013-01-16 12:23:00,
2013-01-16 04:28:00,35.2,16.5,30.50,East,79,13.0,23.0,46,0.00,,SCT,0.00,VWS V14.01,2013-01-16 12:28:00,
2013-01-16 04:30:00,35.2,16.5,30.50,East,79,18.0,23.0,46,0.00,,SCT,0.00,VWS V14.01,2013-01-16 12:30:00,
2013-01-16 04:33:00,35.2,18.0,30.50,East,96,14.0,23.0,49,0.00,,SCT,0.00,VWS V14.01,2013-01-16 12:33:00,
2013-01-16 04:38:00,35.3,16.1,30.50,ENE,76,19.0,24.0,45,0.00,,SCT,0.00,VWS V14.01,2013-01-16 12:38:00,
2013-01-16 04:43:00,35.3,16.6,30.50,ESE,103,18.0,27.0,46,0.00,,SCT,0.00,VWS V14.01,2013-01-16 12:43:00,
2013-01-16 04:45:00,35.2,16.5,30.50,East,98,18.0,27.0,46,0.00,,SCT,0.00,VWS V14.01,2013-01-16 12:45:00,
2013-01-16 04:48:00,35.2,16.5,30.50,East,96,23.0,23.0,46,0.00,,SCT,0.00,VWS V14.01,2013-01-16 12:48:00,
2013-01-16 04:53:00,35.1,16.4,30.50,East,96,19.0,24.0,46,0.00,,SCT,0.00,VWS V14.01,2013-01-16 12:53:00,
2013-01-16 04:58:00,35.1,16.4,30.50,East,82,14.0,24.0,46,0.00,,SCT,0.00,VWS V14.01,2013-01-16 12:58:00,
2013-01-16 05:00:00,35.1,16.4,30.50,ENE,74,15.0,24.0,46,0.00,,SCT,0.00,VWS V14.01,2013-01-16 13:00:00,
2013-01-16 05:03:00,35.1,16.9,30.50,East,94,13.0,22.0,47,0.00,,SCT,0.00,VWS V14.01,2013-01-16 13:03:00,
2013-01-16 05:08:00,35.0,16.8,30.49,East,86,19.0,23.0,47,0.00,,SCT,0.00,VWS V14.01,2013-01-16 13:08:00,
2013-01-16 05:13:00,35.0,16.8,30.50,East,88,11.0,23.0,47,0.00,,SCT,0.00,VWS V14.01,2013-01-16 13:13:00,
2013-01-16 05:15:00,34.9,16.2,30.49,ENE,76,14.0,23.0,46,0.00,,SCT,0.00,VWS V14.01,2013-01-16 13:15:00,
2013-01-16 05:18:00,34.9,16.7,30.50,ENE,76,13.0,19.0,47,0.00,,SCT,0.00,VWS V14.01,2013-01-16 13:18:00,
2013-01-16 05:23:00,34.7,16.5,30.51,ENE,77,11.0,19.0,47,0.00,,SCT,0.00,VWS V14.01,2013-01-16 13:23:00,
2013-01-16 05:28:00,34.7,16.5,30.50,ESE,107,11.0,24.0,47,0.00,,SCT,0.00,VWS V14.01,2013-01-16 13:28:00,
2013-01-16 05:30:00,34.6,16.5,30.50,ESE,112,15.0,24.0,47,0.00,,SCT,0.00,VWS V14.01,2013-01-16 13:30:00,
2013-01-16 05:33:00,34.6,16.5,30.51,ENE,78,12.0,20.0,47,0.00,,SCT,0.00,VWS V14.01,2013-01-16 13:33:00,
2013-01-16 05:38:00,34.4,16.3,30.50,East,88,18.0,23.0,47,0.00,,SCT,0.00,VWS V14.01,2013-01-16 13:38:00,
2013-01-16 05:43:00,34.3,16.7,30.50,East,90,16.0,23.0,48,0.00,,SCT,0.00,VWS V14.01,2013-01-16 13:43:00,
2013-01-16 05:45:00,34.3,16.2,30.50,ENE,76,12.0,23.0,47,0.00,,SCT,0.00,VWS V14.01,2013-01-16 13:45:00,
2013-01-16 05:48:00,34.3,16.2,30.50,ESE,103,24.0,24.0,47,0.00,,SCT,0.00,VWS V14.01,2013-01-16 13:48:00,
2013-01-16 05:53:00,34.6,16.5,30.50,ENE,78,15.0,25.0,47,0.00,,SCT,0.00,VWS V14.01,2013-01-16 13:53:00,
2013-01-16 05:58:00,34.8,16.6,30.50,East,96,14.0,25.0,47,0.00,,SCT,0.00,VWS V14.01,2013-01-16 13:58:00,
2013-01-16 06:00:00,34.9,17.2,30.50,East,89,14.0,25.0,48,0.00,,SCT,0.00,VWS V14.01,2013-01-16 14:00:00,
2013-01-16 06:03:00,35.0,16.8,30.51,ENE,78,12.0,22.0,47,0.00,,SCT,0.00,VWS V14.01,2013-01-16 14:03:00,
2013-01-16 06:08:00,35.2,17.5,30.51,East,89,13.0,22.0,48,0.00,,SCT,0.00,VWS V14.01,2013-01-16 14:08:00,
2013-01-16 06:13:00,35.5,17.3,30.51,East,98,20.0,22.0,47,0.00,,SCT,0.00,VWS V14.01,2013-01-16 14:13:00,
2013-01-16 06:15:00,35.7,17.5,30.51,East,86,17.0,22.0,47,0.00,,SCT,0.00,VWS V14.01,2013-01-16 14:15:00,
2013-01-16 06:18:00,35.8,17.1,30.51,East,88,18.0,21.0,46,0.00,,SCT,0.00,VWS V14.01,2013-01-16 14:18:00,
2013-01-16 06:23:00,35.9,17.6,30.51,East,79,17.0,23.0,47,0.00,,SCT,0.00,VWS V14.01,2013-01-16 14:23:00,
2013-01-16 06:28:00,36.0,17.7,30.51,ENE,74,19.0,23.0,47,0.00,,SCT,0.00,VWS V14.01,2013-01-16 14:28:00,
2013-01-16 06:30:00,36.0,17.7,30.51,East,87,17.0,23.0,47,0.00,,SCT,0.00,VWS V14.01,2013-01-16 14:30:00,
2013-01-16 06:33:00,36.0,17.2,30.51,East,93,14.0,20.0,46,0.00,,SCT,0.00,VWS V14.01,2013-01-16 14:33:00,
2013-01-16 06:38:00,36.0,17.2,30.51,East,91,18.0,23.0,46,0.00,,SCT,0.00,VWS V14.01,2013-01-16 14:38:00,
2013-01-16 06:43:00,36.1,18.3,30.50,East,92,20.0,24.0,48,0.00,,SCT,0.00,VWS V14.01,2013-01-16 14:43:00,
2013-01-16 06:45:00,36.1,17.8,30.50,ESE,106,18.0,24.0,47,0.00,,SCT,0.00,VWS V14.01,2013-01-16 14:45:00,
2013-01-16 06:48:00,36.2,17.9,30.50,East,88,12.0,23.0,47,0.00,,SCT,0.00,VWS V14.01,2013-01-16 14:48:00,
2013-01-16 06:53:00,36.3,17.5,30.50,East,90,19.0,23.0,46,0.00,,SCT,0.00,VWS V14.01,2013-01-16 14:53:00,
2013-01-16 06:58:00,36.2,17.4,30.51,ENE,66,14.0,23.0,46,0.00,,SCT,0.00,VWS V14.01,2013-01-16 14:58:00,
2013-01-16 07:00:00,36.1,17.8,30.50,East,96,20.0,24.0,47,0.00,,SCT,0.00,VWS V14.01,2013-01-16 15:00:00,
2013-01-16 07:03:00,36.1,17.8,30.50,East,82,15.0,22.0,47,0.00,,SCT,0.00,VWS V14.01,2013-01-16 15:03:00,
2013-01-16 07:08:00,36.0,17.7,30.50,ESE,104,16.0,24.0,47,0.00,,SCT,0.00,VWS V14.01,2013-01-16 15:08:00,
2013-01-16 07:13:00,36.0,17.7,30.50,East,95,14.0,24.0,47,0.00,,SCT,0.00,VWS V14.01,2013-01-16 15:13:00,
2013-01-16 07:15:00,36.1,17.8,30.51,East,101,20.0,24.0,47,0.00,,SCT,0.00,VWS V14.01,2013-01-16 15:15:00,
2013-01-16 07:18:00,36.1,17.8,30.51,East,96,14.0,24.0,47,0.00,,SCT,0.00,VWS V14.01,2013-01-16 15:18:00,
2013-01-16 07:23:00,36.1,17.8,30.52,East,87,15.0,24.0,47,0.00,,SCT,0.00,VWS V14.01,2013-01-16 15:23:00,
2013-01-16 07:28:00,36.2,17.9,30.52,East,79,18.0,24.0,47,0.00,,SCT,0.00,VWS V14.01,2013-01-16 15:28:00,
2013-01-16 07:30:00,36.2,17.9,30.52,ENE,76,15.0,24.0,47,0.00,,SCT,0.00,VWS V14.01,2013-01-16 15:30:00,
2013-01-16 07:33:00,36.3,18.0,30.51,ESE,108,15.0,23.0,47,0.00,,SCT,0.00,VWS V14.01,2013-01-16 15:33:00,
2013-01-16 07:38:00,36.4,18.1,30.51,East,95,20.0,26.0,47,0.00,,SCT,0.00,VWS V14.01,2013-01-16 15:38:00,
2013-01-16 07:43:00,36.6,18.3,30.52,ENE,76,18.0,26.0,47,0.00,,SCT,0.00,VWS V14.01,2013-01-16 15:43:00,
2013-01-16 07:45:00,36.8,18.5,30.52,ENE,71,14.0,26.0,47,0.00,,SCT,0.00,VWS V14.01,2013-01-16 15:45:00,
2013-01-16 07:48:00,37.0,18.7,30.52,ENE,72,12.0,23.0,47,0.00,,SCT,0.00,VWS V14.01,2013-01-16 15:48:00,
2013-01-16 07:53:00,37.4,18.5,30.52,East,96,16.0,24.0,46,0.00,,SCT,0.00,VWS V14.01,2013-01-16 15:53:00,
2013-01-16 07:58:00,37.9,19.0,30.52,East,90,21.0,26.0,46,0.00,,SCT,0.00,VWS V14.01,2013-01-16 15:58:00,
2013-01-16 08:00:00,38.2,18.8,30.52,East,94,16.0,26.0,45,0.00,,SCT,0.00,VWS V14.01,2013-01-16 16:00:00,
2013-01-16 08:03:00,38.5,19.0,30.52,ENE,74,15.0,23.0,45,0.00,,SCT,0.00,VWS V14.01,2013-01-16 16:03:00,
2013-01-16 08:08:00,39.0,19.0,30.52,East,88,18.0,23.0,44,0.00,,SCT,0.00,VWS V14.01,2013-01-16 16:08:00,
2013-01-16 08:13:00,39.4,19.3,30.51,ENE,76,17.0,23.0,44,0.00,,SCT,0.00,VWS V14.01,2013-01-16 16:13:00,
2013-01-16 08:15:00,39.5,19.4,30.52,ESE,106,19.0,25.0,44,0.00,,SCT,0.00,VWS V14.01,2013-01-16 16:15:00,
2013-01-16 08:18:00,39.6,19.5,30.51,East,83,20.0,27.0,44,0.00,,SCT,0.00,VWS V14.01,2013-01-16 16:18:00,
2013-01-16 08:23:00,39.9,19.2,30.52,East,94,13.0,27.0,43,0.00,,SCT,0.00,VWS V14.01,2013-01-16 16:23:00,
2013-01-16 08:28:00,40.2,19.5,30.52,ESE,105,14.0,27.0,43,0.00,,SCT,0.00,VWS V14.01,2013-01-16 16:28:00,
2013-01-16 08:30:00,40.4,19.1,30.52,East,85,15.0,27.0,42,0.00,,SCT,0.00,VWS V14.01,2013-01-16 16:30:00,
2013-01-16 08:33:00,40.5,19.2,30.52,ENE,74,11.0,23.0,42,0.00,,SCT,0.00,VWS V14.01,2013-01-16 16:33:00,
2013-01-16 08:38:00,40.6,19.3,30.52,ENE,71,20.0,23.0,42,0.00,,SCT,0.00,VWS V14.01,2013-01-16 16:38:00,
2013-01-16 08:43:00,40.7,19.4,30.52,ENE,64,15.0,23.0,42,0.00,,SCT,0.00,VWS V14.01,2013-01-16 16:43:00,
2013-01-16 08:45:00,40.8,19.5,30.52,ENE,76,23.0,23.0,42,0.00,,SCT,0.00,VWS V14.01,2013-01-16 16:45:00,
2013-01-16 08:48:00,41.0,19.7,30.53,East,81,15.0,23.0,42,0.00,,SCT,0.00,VWS V14.01,2013-01-16 16:48:00,
2013-01-16 08:53:00,41.4,20.0,30.52,East,88,12.0,23.0,42,0.00,,SCT,0.00,VWS V14.01,2013-01-16 16:53:00,
2013-01-16 08:58:00,41.5,19.6,30.53,ENE,73,12.0,23.0,41,0.00,,SCT,0.00,VWS V14.01,2013-01-16 16:58:00,
2013-01-16 09:00:00,41.6,19.7,30.53,East,82,19.0,23.0,41,0.00,,SCT,0.00,VWS V14.01,2013-01-16 17:00:00,
2013-01-16 09:03:00,41.7,19.8,30.52,ESE,121,17.0,23.0,41,0.00,,SCT,0.00,VWS V14.01,2013-01-16 17:03:00,
2013-01-16 09:08:00,41.8,19.8,30.52,East,95,22.0,25.0,41,0.00,,SCT,0.00,VWS V14.01,2013-01-16 17:08:00,
2013-01-16 09:13:00,41.9,19.9,30.53,East,88,13.0,25.0,41,0.00,,SCT,0.00,VWS V14.01,2013-01-16 17:13:00,
2013-01-16 09:15:00,42.0,20.0,30.53,East,80,11.0,25.0,41,0.00,,SCT,0.00,VWS V14.01,2013-01-16 17:15:00,
2013-01-16 09:18:00,42.1,20.1,30.52,NE,38,22.0,22.0,41,0.00,,SCT,0.00,VWS V14.01,2013-01-16 17:18:00,
2013-01-16 09:23:00,42.3,19.7,30.53,ENE,75,12.0,22.0,40,0.00,,SCT,0.00,VWS V14.01,2013-01-16 17:23:00,
2013-01-16 09:28:00,42.5,19.9,30.53,East,87,14.0,22.0,40,0.00,,SCT,0.00,VWS V14.01,2013-01-16 17:28:00,
2013-01-16 09:30:00,42.6,20.6,30.53,ENE,57,15.0,22.0,41,0.00,,SCT,0.00,VWS V14.01,2013-01-16 17:30:00,
2013-01-16 09:33:00,42.7,20.1,30.53,NE,44,17.0,24.0,40,0.00,,SCT,0.00,VWS V14.01,2013-01-16 17:33:00,
2013-01-16 09:38:00,42.8,20.2,30.53,ESE,121,16.0,24.0,40,0.00,,SCT,0.00,VWS V14.01,2013-01-16 17:38:00,
2013-01-16 09:43:00,42.9,20.3,30.53,East,84,19.0,24.0,40,0.00,,SCT,0.00,VWS V14.01,2013-01-16 17:43:00,
2013-01-16 09:45:00,42.9,20.3,30.53,ENE,78,17.0,24.0,40,0.00,,SCT,0.00,VWS V14.01,2013-01-16 17:45:00,
2013-01-16 09:48:00,43.1,20.4,30.53,East,100,14.0,23.0,40,0.00,,SCT,0.00,VWS V14.01,2013-01-16 17:48:00,
2013-01-16 09:53:00,43.3,20.0,30.53,East,83,20.0,24.0,39,0.00,,SCT,0.00,VWS V14.01,2013-01-16 17:53:00,
2013-01-16 09:58:00,43.5,20.8,30.53,ENE,78,15.0,24.0,40,0.00,,SCT,0.00,VWS V14.01,2013-01-16 17:58:00,
2013-01-16 10:00:00,43.6,20.3,30.53,ESE,105,16.0,24.0,39,0.00,,SCT,0.00,VWS V14.01,2013-01-16 18:00:00,
2013-01-16 10:03:00,43.6,20.3,30.52,ENE,75,17.0,22.0,39,0.00,,SCT,0.00,VWS V14.01,2013-01-16 18:03:00,
2013-01-16 10:08:00,43.6,20.3,30.52,East,89,14.0,22.0,39,0.00,,SCT,0.00,VWS V14.01,2013-01-16 18:08:00,
2013-01-16 10:13:00,43.6,20.9,30.51,East,80,14.0,22.0,40,0.00,,SCT,0.00,VWS V14.01,2013-01-16 18:13:00,
2013-01-16 10:15:00,43.8,20.5,30.52,East,80,15.0,22.0,39,0.00,,SCT,0.00,VWS V14.01,2013-01-16 18:15:00,
2013-01-16 10:18:00,44.1,20.7,30.52,ENE,64,15.0,19.0,39,0.00,,SCT,0.00,VWS V14.01,2013-01-16 18:18:00,
2013-01-16 10:23:00,44.4,21.0,30.51,ENE,77,10.0,21.0,39,0.00,,SCT,0.00,VWS V14.01,2013-01-16 18:23:00,
2013-01-16 10:28:00,44.7,20.7,30.51,ENE,74,13.0,21.0,38,0.00,,SCT,0.00,VWS V14.01,2013-01-16 18:28:00,
2013-01-16 10:30:00,44.8,21.4,30.51,East,95,18.0,21.0,39,0.00,,SCT,0.00,VWS V14.01,2013-01-16 18:30:00,
2013-01-16 10:33:00,44.8,20.8,30.50,East,96,14.0,20.0,38,0.00,,SCT,0.00,VWS V14.01,2013-01-16 18:33:00,
2013-01-16 10:38:00,44.9,20.9,30.50,East,90,21.0,21.0,38,0.00,,SCT,0.00,VWS V14.01,2013-01-16 18:38:00,
2013-01-16 10:43:00,45.0,20.9,30.49,East,91,13.0,22.0,38,0.00,,SCT,0.00,VWS V14.01,2013-01-16 18:43:00,
2013-01-16 10:45:00,45.1,20.4,30.49,ENE,57,14.0,22.0,37,0.00,,SCT,0.00,VWS V14.01,2013-01-16 18:45:00,
2013-01-16 10:48:00,45.0,20.3,30.49,East,84,11.0,21.0,37,0.00,,SCT,0.00,VWS V14.01,2013-01-16 18:48:00,
2013-01-16 10:53:00,45.2,21.1,30.49,ENE,74,14.0,21.0,38,0.00,,SCT,0.00,VWS V14.01,2013-01-16 18:53:00,
2013-01-16 10:58:00,45.2,20.5,30.49,NE,55,14.0,21.0,37,0.00,,SCT,0.00,VWS V14.01,2013-01-16 18:58:00,
2013-01-16 11:00:00,45.2,21.1,30.49,ENE,75,19.0,21.0,38,0.00,,SCT,0.00,VWS V14.01,2013-01-16 19:00:00,
2013-01-16 11:03:00,45.3,21.2,30.48,ENE,77,13.0,21.0,38,0.00,,SCT,0.00,VWS V14.01,2013-01-16 19:03:00,
2013-01-16 11:08:00,45.5,20.8,30.48,East,80,10.0,21.0,37,0.00,,SCT,0.00,VWS V14.01,2013-01-16 19:08:00,
2013-01-16 11:13:00,45.5,20.8,30.48,ENE,74,12.0,21.0,37,0.00,,SCT,0.00,VWS V14.01,2013-01-16 19:13:00,
2013-01-16 11:15:00,45.5,20.8,30.48,East,90,9.0,21.0,37,0.00,,SCT,0.00,VWS V14.01,2013-01-16 19:15:00,
2013-01-16 11:18:00,45.4,20.7,30.48,East,88,11.0,16.0,37,0.00,,SCT,0.00,VWS V14.01,2013-01-16 19:18:00,
2013-01-16 11:23:00,45.3,21.2,30.48,East,80,10.0,16.0,38,0.00,,SCT,0.00,VWS V14.01,2013-01-16 19:23:00,
2013-01-16 11:28:00,45.5,20.1,30.47,ENE,78,15.0,18.0,36,0.00,,SCT,0.00,VWS V14.01,2013-01-16 19:28:00,
2013-01-16 11:30:00,45.5,20.8,30.47,ESE,109,12.0,18.0,37,0.00,,SCT,0.00,VWS V14.01,2013-01-16 19:30:00,
2013-01-16 11:33:00,45.5,20.8,30.47,East,84,17.0,17.0,37,0.00,,SCT,0.00,VWS V14.01,2013-01-16 19:33:00,
2013-01-16 11:38:00,45.5,20.8,30.47,NE,52,12.0,19.0,37,0.00,,SCT,0.00,VWS V14.01,2013-01-16 19:38:00,
2013-01-16 11:43:00,45.5,20.8,30.46,NE,46,15.0,19.0,37,0.00,,SCT,0.00,VWS V14.01,2013-01-16 19:43:00,
2013-01-16 11:45:00,45.5,20.1,30.46,ENE,76,13.0,19.0,36,0.00,,SCT,0.00,VWS V14.01,2013-01-16 19:45:00,
2013-01-16 11:48:00,45.4,20.0,30.45,East,86,18.0,18.0,36,0.00,,SCT,0.00,VWS V14.01,2013-01-16 19:48:00,
2013-01-16 11:53:00,45.5,21.4,30.45,ENE,58,10.0,19.0,38,0.00,,SCT,0.00,VWS V14.01,2013-01-16 19:53:00,
2013-01-16 11:58:00,45.5,20.8,30.45,East,85,10.0,19.0,37,0.00,,SCT,0.00,VWS V14.01,2013-01-16 19:58:00,
2013-01-16 12:00:00,45.6,21.5,30.45,ENE,75,13.0,19.0,38,0.00,,SCT,0.00,VWS V14.01,2013-01-16 20:00:00,
2013-01-16 12:03:00,45.8,21.6,30.44,ENE,76,10.0,17.0,38,0.00,,SCT,0.00,VWS V14.01,2013-01-16 20:03:00,
2013-01-16 12:08:00,45.7,20.3,30.43,ESE,105,15.0,19.0,36,0.00,,SCT,0.00,VWS V14.01,2013-01-16 20:08:00,
2013-01-16 12:13:00,45.9,19.8,30.43,ENE,76,14.0,19.0,35,0.00,,SCT,0.00,VWS V14.01,2013-01-16 20:13:00,
2013-01-16 12:15:00,46.0,20.6,30.43,East,80,11.0,19.0,36,0.00,,SCT,0.00,VWS V14.01,2013-01-16 20:15:00,
2013-01-16 12:18:00,46.0,21.2,30.43,East,90,13.0,21.0,37,0.00,,SCT,0.00,VWS V14.01,2013-01-16 20:18:00,
2013-01-16 12:23:00,46.4,20.9,30.42,East,92,13.0,23.0,36,0.00,,SCT,0.00,VWS V14.01,2013-01-16 20:23:00,
2013-01-16 12:28:00,46.6,21.1,30.42,East,98,18.0,23.0,36,0.00,,SCT,0.00,VWS V14.01,2013-01-16 20:28:00,
2013-01-16 12:30:00,46.6,21.1,30.42,ENE,63,11.0,23.0,36,0.00,,SCT,0.00,VWS V14.01,2013-01-16 20:30:00,
2013-01-16 12:33:00,46.7,20.5,30.41,ESE,107,12.0,18.0,35,0.00,,SCT,0.00,VWS V14.01,2013-01-16 20:33:00,
2013-01-16 12:38:00,46.4,20.9,30.41,ENE,74,11.0,22.0,36,0.00,,SCT,0.00,VWS V14.01,2013-01-16 20:38:00,
2013-01-16 12:43:00,46.2,20.1,30.41,ENE,61,14.0,25.0,35,0.00,,SCT,0.00,VWS V14.01,2013-01-16 20:43:00,
2013-01-16 12:45:00,46.2,20.7,30.41,East,95,16.0,25.0,36,0.00,,SCT,0.00,VWS V14.01,2013-01-16 20:45:00,
2013-01-16 12:48:00,46.4,20.9,30.40,East,92,11.0,21.0,36,0.00,,SCT,0.00,VWS V14.01,2013-01-16 20:48:00,
2013-01-16 12:53:00,46.7,21.8,30.40,ENE,78,15.0,23.0,37,0.00,,SCT,0.00,VWS V14.01,2013-01-16 20:53:00,
2013-01-16 12:58:00,46.9,21.4,30.40,East,90,20.0,23.0,36,0.00,,SCT,0.00,VWS V14.01,2013-01-16 20:58:00,
2013-01-16 13:00:00,46.9,21.4,30.40,East,93,20.0,23.0,36,0.00,,SCT,0.00,VWS V14.01,2013-01-16 21:00:00,
2013-01-16 13:03:00,47.0,20.8,30.40,ENE,69,13.0,20.0,35,0.00,,SCT,0.00,VWS V14.01,2013-01-16 21:03:00,
2013-01-16 13:08:00,47.4,21.1,30.40,NE,56,14.0,22.0,35,0.00,,SCT,0.00,VWS V14.01,2013-01-16 21:08:00,
2013-01-16 13:13:00,47.5,21.2,30.40,ENE,68,13.0,22.0,35,0.00,,SCT,0.00,VWS V14.01,2013-01-16 21:13:00,
2013-01-16 13:15:00,47.5,20.5,30.40,East,86,15.0,23.0,34,0.00,,SCT,0.00,VWS V14.01,2013-01-16 21:15:00,
2013-01-16 13:18:00,47.4,21.1,30.40,East,80,11.0,18.0,35,0.00,,SCT,0.00,VWS V14.01,2013-01-16 21:18:00,
2013-01-16 13:23:00,47.2,21.6,30.40,East,80,14.0,21.0,36,0.00,,SCT,0.00,VWS V14.01,2013-01-16 21:23:00,
2013-01-16 13:28:00,47.2,21.0,30.40,ENE,74,21.0,24.0,35,0.00,,SCT,0.00,VWS V14.01,2013-01-16 21:28:00,
2013-01-16 13:30:00,47.1,20.2,30.40,ENE,74,18.0,24.0,34,0.00,,SCT,0.00,VWS V14.01,2013-01-16 21:30:00,
2013-01-16 13:33:00,47.1,20.9,30.39,East,82,17.0,23.0,35,0.00,,SCT,0.00,VWS V14.01,2013-01-16 21:33:00,
2013-01-16 13:38:00,47.1,20.9,30.40,East,91,12.0,23.0,35,0.00,,SCT,0.00,VWS V14.01,2013-01-16 21:38:00,
2013-01-16 13:43:00,47.1,21.5,30.40,ESE,109,16.0,24.0,36,0.00,,SCT,0.00,VWS V14.01,2013-01-16 21:43:00,
2013-01-16 13:45:00,47.1,20.2,30.40,East,91,19.0,24.0,34,0.00,,SCT,0.00,VWS V14.01,2013-01-16 21:45:00,
2013-01-16 13:48:00,46.9,20.0,30.40,ENE,75,15.0,20.0,34,0.00,,SCT,0.00,VWS V14.01,2013-01-16 21:48:00,
2013-01-16 13:53:00,47.2,21.6,30.39,NE,47,19.0,22.0,36,0.00,,SCT,0.00,VWS V14.01,2013-01-16 21:53:00,
2013-01-16 13:58:00,47.4,21.8,30.39,ENE,76,12.0,22.0,36,0.00,,SCT,0.00,VWS V14.01,2013-01-16 21:58:00,
2013-01-16 14:00:00,47.3,20.4,30.39,ENE,76,12.0,22.0,34,0.00,,SCT,0.00,VWS V14.01,2013-01-16 22:00:00,
2013-01-16 14:03:00,47.1,20.2,30.39,ENE,63,21.0,22.0,34,0.00,,SCT,0.00,VWS V14.01,2013-01-16 22:03:00,
2013-01-16 14:08:00,47.0,20.8,30.39,ENE,73,22.0,24.0,35,0.00,,SCT,0.00,VWS V14.01,2013-01-16 22:08:00,
2013-01-16 14:13:00,47.0,20.8,30.39,East,93,14.0,24.0,35,0.00,,SCT,0.00,VWS V14.01,2013-01-16 22:13:00,
2013-01-16 14:15:00,47.0,20.8,30.39,ENE,66,14.0,24.0,35,0.00,,SCT,0.00,VWS V14.01,2013-01-16 22:15:00,
2013-01-16 14:18:00,47.1,20.9,30.39,ENE,59,14.0,22.0,35,0.00,,SCT,0.00,VWS V14.01,2013-01-16 22:18:00,
2013-01-16 14:23:00,47.0,20.1,30.39,ENE,71,18.0,22.0,34,0.00,,SCT,0.00,VWS V14.01,2013-01-16 22:23:00,
2013-01-16 14:28:00,46.9,20.7,30.39,ENE,68,18.0,22.0,35,0.00,,SCT,0.00,VWS V14.01,2013-01-16 22:28:00,
2013-01-16 14:30:00,47.0,20.8,30.39,East,87,11.0,22.0,35,0.00,,SCT,0.00,VWS V14.01,2013-01-16 22:30:00,
2013-01-16 14:33:00,47.0,20.8,30.39,ENE,58,13.0,19.0,35,0.00,,SCT,0.00,VWS V14.01,2013-01-16 22:33:00,
2013-01-16 14:38:00,47.2,21.0,30.39,East,88,14.0,20.0,35,0.00,,SCT,0.00,VWS V14.01,2013-01-16 22:38:00,
2013-01-16 14:43:00,47.1,20.9,30.39,East,87,13.0,21.0,35,0.00,,SCT,0.00,VWS V14.01,2013-01-16 22:43:00,
2013-01-16 14:45:00,47.1,21.5,30.39,East,87,17.0,21.0,36,0.00,,SCT,0.00,VWS V14.01,2013-01-16 22:45:00,
2013-01-16 14:48:00,47.1,20.9,30.39,East,90,14.0,21.0,35,0.00,,SCT,0.00,VWS V14.01,2013-01-16 22:48:00,
2013-01-16 14:53:00,47.1,20.9,30.39,East,81,17.0,23.0,35,0.00,,SCT,0.00,VWS V14.01,2013-01-16 22:53:00,
2013-01-16 14:58:00,47.3,21.0,30.39,ENE,64,13.0,24.0,35,0.00,,SCT,0.00,VWS V14.01,2013-01-16 22:58:00,
2013-01-16 15:00:00,47.4,20.5,30.39,ENE,66,14.0,24.0,34,0.00,,SCT,0.00,VWS V14.01,2013-01-16 23:00:00,
2013-01-16 15:03:00,47.2,20.3,30.39,East,80,21.0,21.0,34,0.00,,SCT,0.00,VWS V14.01,2013-01-16 23:03:00,
2013-01-16 15:08:00,46.9,20.7,30.39,ENE,73,17.0,29.0,35,0.00,,SCT,0.00,VWS V14.01,2013-01-16 23:08:00,
2013-01-16 15:13:00,46.6,20.4,30.39,ESE,108,16.0,29.0,35,0.00,,SCT,0.00,VWS V14.01,2013-01-16 23:13:00,
2013-01-16 15:15:00,46.6,20.4,30.39,East,80,17.0,29.0,35,0.00,,SCT,0.00,VWS V14.01,2013-01-16 23:15:00,
2013-01-16 15:18:00,46.5,20.3,30.40,ENE,78,11.0,21.0,35,0.00,,SCT,0.00,VWS V14.01,2013-01-16 23:18:00,
2013-01-16 15:23:00,46.2,20.7,30.40,NE,55,14.0,21.0,36,0.00,,SCT,0.00,VWS V14.01,2013-01-16 23:23:00,
2013-01-16 15:28:00,46.1,20.6,30.40,East,101,13.0,21.0,36,0.00,,SCT,0.00,VWS V14.01,2013-01-16 23:28:00,
2013-01-16 15:30:00,46.1,20.6,30.39,East,92,15.0,22.0,36,0.00,,SCT,0.00,VWS V14.01,2013-01-16 23:30:00,
2013-01-16 15:33:00,46.0,20.6,30.40,ESE,110,14.0,22.0,36,0.00,,SCT,0.00,VWS V14.01,2013-01-16 23:33:00,
2013-01-16 15:38:00,45.8,20.4,30.40,East,80,14.0,22.0,36,0.00,,SCT,0.00,VWS V14.01,2013-01-16 23:38:00,
2013-01-16 15:43:00,45.6,20.2,30.40,East,83,18.0,22.0,36,0.00,,SCT,0.00,VWS V14.01,2013-01-16 23:43:00,
2013-01-16 15:45:00,45.5,20.1,30.40,ENE,71,12.0,22.0,36,0.00,,SCT,0.00,VWS V14.01,2013-01-16 23:45:00,
2013-01-16 15:48:00,45.4,20.7,30.40,ENE,62,15.0,21.0,37,0.00,,SCT,0.00,VWS V14.01,2013-01-16 23:48:00,
2013-01-16 15:53:00,45.3,20.6,30.40,ENE,78,15.0,23.0,37,0.00,,SCT,0.00,VWS V14.01,2013-01-16 23:53:00,
2013-01-16 15:58:00,45.2,19.9,30.40,East,80,14.0,23.0,36,0.00,,SCT,0.00,VWS V14.01,2013-01-16 23:58:00,
2013-01-16 16:00:00,45.2,20.5,30.40,East,92,15.0,23.0,37,0.00,,SCT,0.00,VWS V14.01,2013-01-17 00:00:00,
2013-01-16 16:03:00,45.0,20.3,30.40,East,88,14.0,22.0,37,0.00,,SCT,0.00,VWS V14.01,2013-01-17 00:03:00,
2013-01-16 16:08:00,44.8,20.1,30.40,East,84,15.0,22.0,37,0.00,,SCT,0.00,VWS V14.01,2013-01-17 00:08:00,
2013-01-16 16:13:00,44.4,21.0,30.40,East,94,13.0,25.0,39,0.00,,SCT,0.00,VWS V14.01,2013-01-17 00:13:00,
2013-01-16 16:15:00,44.2,20.2,30.40,ENE,78,12.0,25.0,38,0.00,,SCT,0.00,VWS V14.01,2013-01-17 00:15:00,
2013-01-16 16:18:00,44.1,20.1,30.40,East,82,17.0,21.0,38,0.00,,SCT,0.00,VWS V14.01,2013-01-17 00:18:00,
2013-01-16 16:23:00,43.8,19.9,30.40,ENE,71,21.0,22.0,38,0.00,,SCT,0.00,VWS V14.01,2013-01-17 00:23:00,
2013-01-16 16:28:00,43.5,19.6,30.39,ENE,61,12.0,22.0,38,0.00,,SCT,0.00,VWS V14.01,2013-01-17 00:28:00,
2013-01-16 16:30:00,43.4,20.1,30.40,East,93,18.0,22.0,39,0.00,,SCT,0.00,VWS V14.01,2013-01-17 00:30:00,
2013-01-16 16:33:00,43.3,20.0,30.39,East,80,12.0,20.0,39,0.00,,SCT,0.00,VWS V14.01,2013-01-17 00:33:00,
2013-01-16 16:38:00,43.0,19.8,30.39,East,94,16.0,23.0,39,0.00,,SCT,0.00,VWS V14.01,2013-01-17 00:38:00,
2013-01-16 16:43:00,42.9,19.7,30.40,ENE,75,22.0,24.0,39,0.00,,SCT,0.00,VWS V14.01,2013-01-17 00:43:00,
2013-01-16 16:45:00,42.8,19.6,30.39,ENE,65,17.0,25.0,39,0.00,,SCT,0.00,VWS V14.01,2013-01-17 00:45:00,
2013-01-16 16:48:00,42.8,19.6,30.40,NE,54,20.0,23.0,39,0.00,,SCT,0.00,VWS V14.01,2013-01-17 00:48:00,
2013-01-16 16:53:00,42.7,19.5,30.39,East,85,17.0,23.0,39,0.00,,SCT,0.00,VWS V14.01,2013-01-17 00:53:00,
2013-01-16 16:58:00,42.6,19.4,30.39,ENE,62,17.0,25.0,39,0.00,,SCT,0.00,VWS V14.01,2013-01-17 00:58:00,
2013-01-16 17:00:00,42.6,20.0,30.39,ENE,76,20.0,25.0,40,0.00,,SCT,0.00,VWS V14.01,2013-01-17 01:00:00,
2013-01-16 17:03:00,42.5,19.9,30.39,ENE,76,18.0,23.0,40,0.00,,SCT,0.00,VWS V14.01,2013-01-17 01:03:00,
2013-01-16 17:08:00,42.6,20.0,30.39,ESE,107,22.0,25.0,40,0.00,,SCT,0.00,VWS V14.01,2013-01-17 01:08:00,
2013-01-16 17:13:00,42.7,19.5,30.39,ENE,59,15.0,25.0,39,0.00,,SCT,0.00,VWS V14.01,2013-01-17 01:13:00,
2013-01-16 17:15:00,42.7,19.5,30.40,ENE,78,15.0,25.0,39,0.00,,SCT,0.00,VWS V14.01,2013-01-17 01:15:00,
2013-01-16 17:18:00,42.8,19.6,30.40,ENE,71,10.0,22.0,39,0.00,,SCT,0.00,VWS V14.01,2013-01-17 01:18:00,
2013-01-16 17:23:00,42.9,20.3,30.39,East,82,17.0,23.0,40,0.00,,SCT,0.00,VWS V14.01,2013-01-17 01:23:00,
2013-01-16 17:28:00,42.6,19.4,30.40,ENE,76,17.0,23.0,39,0.00,,SCT,0.00,VWS V14.01,2013-01-17 01:28:00,
2013-01-16 17:30:00,42.4,19.8,30.40,ENE,74,13.0,23.0,40,0.00,,SCT,0.00,VWS V14.01,2013-01-17 01:30:00,
2013-01-16 17:33:00,42.2,19.6,30.40,East,80,15.0,22.0,40,0.00,,SCT,0.00,VWS V14.01,2013-01-17 01:33:00,
2013-01-16 17:38:00,42.0,19.5,30.40,East,81,17.0,22.0,40,0.00,,SCT,0.00,VWS V14.01,2013-01-17 01:38:00,
2013-01-16 17:43:00,41.8,19.8,30.40,East,80,14.0,24.0,41,0.00,,SCT,0.00,VWS V14.01,2013-01-17 01:43:00,
2013-01-16 17:45:00,41.6,19.7,30.40,East,82,17.0,24.0,41,0.00,,SCT,0.00,VWS V14.01,2013-01-17 01:45:00,
2013-01-16 17:48:00,41.6,19.7,30.40,ENE,77,19.0,19.0,41,0.00,,SCT,0.00,VWS V14.01,2013-01-17 01:48:00,
2013-01-16 17:53:00,41.5,19.6,30.40,East,92,19.0,22.0,41,0.00,,SCT,0.00,VWS V14.01,2013-01-17 01:53:00,
2013-01-16 17:58:00,41.4,19.5,30.40,East,94,12.0,22.0,41,0.00,,SCT,0.00,VWS V14.01,2013-01-17 01:58:00,
2013-01-16 18:00:00,41.4,19.5,30.41,East,84,21.0,22.0,41,0.00,,SCT,0.00,VWS V14.01,2013-01-17 02:00:00,
2013-01-16 18:03:00,41.4,20.0,30.41,East,96,14.0,22.0,42,0.00,,SCT,0.00,VWS V14.01,2013-01-17 02:03:00,
2013-01-16 18:08:00,41.3,19.4,30.41,ENE,61,11.0,23.0,41,0.00,,SCT,0.00,VWS V14.01,2013-01-17 02:08:00,
2013-01-16 18:13:00,41.3,19.4,30.41,ENE,60,13.0,23.0,41,0.00,,SCT,0.00,VWS V14.01,2013-01-17 02:13:00,
2013-01-16 18:15:00,41.3,20.0,30.41,East,88,11.0,23.0,42,0.00,,SCT,0.00,VWS V14.01,2013-01-17 02:15:00,
2013-01-16 18:18:00,41.2,19.9,30.41,ENE,72,19.0,20.0,42,0.00,,SCT,0.00,VWS V14.01,2013-01-17 02:18:00,
2013-01-16 18:23:00,41.2,19.9,30.41,ENE,73,12.0,20.0,42,0.00,,SCT,0.00,VWS V14.01,2013-01-17 02:23:00,
2013-01-16 18:28:00,41.1,19.8,30.41,East,96,18.0,23.0,42,0.00,,SCT,0.00,VWS V14.01,2013-01-17 02:28:00,
2013-01-16 18:30:00,41.1,19.8,30.41,ENE,73,14.0,23.0,42,0.00,,SCT,0.00,VWS V14.01,2013-01-17 02:30:00,
2013-01-16 18:33:00,41.2,19.9,30.41,ENE,74,15.0,22.0,42,0.00,,SCT,0.00,VWS V14.01,2013-01-17 02:33:00,
2013-01-16 18:38:00,41.2,19.3,30.41,East,89,22.0,23.0,41,0.00,,SCT,0.00,VWS V14.01,2013-01-17 02:38:00,
2013-01-16 18:43:00,41.2,19.9,30.41,East,80,12.0,23.0,42,0.00,,SCT,0.00,VWS V14.01,2013-01-17 02:43:00,
2013-01-16 18:45:00,41.3,19.4,30.41,East,84,10.0,23.0,41,0.00,,SCT,0.00,VWS V14.01,2013-01-17 02:45:00,
2013-01-16 18:48:00,41.3,20.0,30.41,East,87,19.0,22.0,42,0.00,,SCT,0.00,VWS V14.01,2013-01-17 02:48:00,
2013-01-16 18:53:00,41.3,19.4,30.41,East,90,18.0,22.0,41,0.00,,SCT,0.00,VWS V14.01,2013-01-17 02:53:00,
2013-01-16 18:58:00,41.4,20.0,30.42,ENE,71,11.0,23.0,42,0.00,,SCT,0.00,VWS V14.01,2013-01-17 02:58:00,
2013-01-16 19:00:00,41.3,20.0,30.42,ENE,74,18.0,23.0,42,0.00,,SCT,0.00,VWS V14.01,2013-01-17 03:00:00,
2013-01-16 19:03:00,41.4,19.5,30.41,ENE,65,11.0,23.0,41,0.00,,SCT,0.00,VWS V14.01,2013-01-17 03:03:00,
2013-01-16 19:08:00,41.5,20.1,30.41,East,84,14.0,23.0,42,0.00,,SCT,0.00,VWS V14.01,2013-01-17 03:08:00,
2013-01-16 19:13:00,41.6,19.1,30.41,ENE,69,13.0,23.0,40,0.00,,SCT,0.00,VWS V14.01,2013-01-17 03:13:00,
2013-01-16 19:15:00,41.8,19.3,30.41,ESE,107,19.0,23.0,40,0.00,,SCT,0.00,VWS V14.01,2013-01-17 03:15:00,
2013-01-16 19:18:00,41.8,19.3,30.42,East,86,13.0,20.0,40,0.00,,SCT,0.00,VWS V14.01,2013-01-17 03:18:00,
2013-01-16 19:23:00,41.9,19.9,30.41,East,87,14.0,23.0,41,0.00,,SCT,0.00,VWS V14.01,2013-01-17 03:23:00,
2013-01-16 19:28:00,41.9,19.4,30.42,East,83,17.0,23.0,40,0.00,,SCT,0.00,VWS V14.01,2013-01-17 03:28:00,
2013-01-16 19:33:00,41.9,19.4,30.42,East,96,16.0,20.0,40,0.00,,SCT,0.00,VWS V14.01,2013-01-17 03:33:00,
2013-01-16 19:38:00,41.9,19.4,30.42,ESE,105,19.0,21.0,40,0.00,,SCT,0.00,VWS V14.01,2013-01-17 03:38:00,
2013-01-16 19:43:00,41.8,19.8,30.42,ENE,76,13.0,22.0,41,0.00,,SCT,0.00,VWS V14.01,2013-01-17 03:43:00,
2013-01-16 19:48:00,41.7,19.8,30.42,East,83,17.0,23.0,41,0.00,,SCT,0.00,VWS V14.01,2013-01-17 03:48:00,
2013-01-16 19:53:00,41.8,19.3,30.42,ENE,78,17.0,23.0,40,0.00,,SCT,0.00,VWS V14.01,2013-01-17 03:53:00,
2013-01-16 19:58:00,41.9,19.4,30.42,East,80,14.0,23.0,40,0.00,,SCT,0.00,VWS V14.01,2013-01-17 03:58:00,
2013-01-16 20:00:00,41.9,19.4,30.42,East,93,12.0,23.0,40,0.00,,SCT,0.00,VWS V14.01,2013-01-17 04:00:00,
2013-01-16 20:03:00,41.9,19.4,30.42,East,95,11.0,19.0,40,0.00,,SCT,0.00,VWS V14.01,2013-01-17 04:03:00,
2013-01-16 20:08:00,41.8,19.3,30.42,East,99,13.0,20.0,40,0.00,,SCT,0.00,VWS V14.01,2013-01-17 04:08:00,
2013-01-16 20:13:00,41.8,19.3,30.41,East,89,17.0,21.0,40,0.00,,SCT,0.00,VWS V14.01,2013-01-17 04:13:00,
2013-01-16 20:15:00,41.8,19.3,30.42,East,88,15.0,21.0,40,0.00,,SCT,0.00,VWS V14.01,2013-01-17 04:15:00,
2013-01-16 20:18:00,41.8,19.3,30.41,ENE,70,21.0,21.0,40,0.00,,SCT,0.00,VWS V14.01,2013-01-17 04:18:00,
2013-01-16 20:23:00,41.7,19.2,30.41,East,87,15.0,21.0,40,0.00,,SCT,0.00,VWS V14.01,2013-01-17 04:23:00,
2013-01-16 20:28:00,41.7,19.2,30.41,ENE,71,17.0,21.0,40,0.00,,SCT,0.00,VWS V14.01,2013-01-17 04:28:00,
2013-01-16 20:30:00,41.6,19.1,30.41,East,99,18.0,21.0,40,0.00,,SCT,0.00,VWS V14.01,2013-01-17 04:30:00,
2013-01-16 20:33:00,41.6,19.1,30.41,ENE,71,11.0,21.0,40,0.00,,SCT,0.00,VWS V14.01,2013-01-17 04:33:00,
2013-01-16 20:38:00,41.6,19.7,30.41,ENE,65,21.0,22.0,41,0.00,,SCT,0.00,VWS V14.01,2013-01-17 04:38:00,
2013-01-16 20:43:00,41.5,19.6,30.41,East,90,18.0,23.0,41,0.00,,SCT,0.00,VWS V14.01,2013-01-17 04:43:00,
2013-01-16 20:45:00,41.4,19.5,30.41,East,95,18.0,23.0,41,0.00,,SCT,0.00,VWS V14.01,2013-01-17 04:45:00,
2013-01-16 20:48:00,41.3,19.4,30.41,East,87,13.0,21.0,41,0.00,,SCT,0.00,VWS V14.01,2013-01-17 04:48:00,
2013-01-16 20:53:00,41.1,19.2,30.40,East,97,14.0,21.0,41,0.00,,SCT,0.00,VWS V14.01,2013-01-17 04:53:00,
2013-01-16 20:58:00,41.0,19.7,30.41,East,86,12.0,22.0,42,0.00,,SCT,0.00,VWS V14.01,2013-01-17 04:58:00,
2013-01-16 21:00:00,41.0,19.7,30.40,East,90,15.0,15.0,42,0.00,,SCT,0.00,VWS V14.01,2013-01-17 05:00:00,
2013-01-16 21:01:00,41.0,19.1,30.40,ENE,67,14.0,15.0,41,0.00,,SCT,0.00,VWS V14.01,2013-01-17 05:01:00,
2013-01-16 21:02:00,41.0,19.7,30.40,ENE,77,11.0,19.0,42,0.00,,SCT,0.00,VWS V14.01,2013-01-17 05:02:00,
2013-01-16 21:07:00,40.9,19.0,30.40,East,80,13.0,23.0,41,0.00,,SCT,0.00,VWS V14.01,2013-01-17 05:07:00,
2013-01-16 21:12:00,40.9,19.0,30.40,ENE,78,10.0,23.0,41,0.00,,SCT,0.00,VWS V14.01,2013-01-17 05:12:00,
2013-01-16 21:15:00,41.0,19.1,30.40,ESE,102,11.0,23.0,41,0.00,,SCT,0.00,VWS V14.01,2013-01-17 05:15:00,
2013-01-16 21:17:00,41.0,19.1,30.40,East,86,14.0,20.0,41,0.00,,SCT,0.00,VWS V14.01,2013-01-17 05:17:00,
2013-01-16 21:22:00,41.1,19.2,30.40,ENE,58,13.0,20.0,41,0.00,,SCT,0.00,VWS V14.01,2013-01-17 05:22:00,
2013-01-16 21:27:00,41.2,19.3,30.40,East,92,19.0,22.0,41,0.00,,SCT,0.00,VWS V14.01,2013-01-17 05:27:00,
2013-01-16 21:30:00,41.2,18.7,30.40,East,79,15.0,22.0,40,0.00,,SCT,0.00,VWS V14.01,2013-01-17 05:30:00,
2013-01-16 21:32:00,41.2,19.3,30.40,East,101,13.0,23.0,41,0.00,,SCT,0.00,VWS V14.01,2013-01-17 05:32:00,
2013-01-16 21:37:00,41.3,18.8,30.40,East,83,17.0,23.0,40,0.00,,SCT,0.00,VWS V14.01,2013-01-17 05:37:00,
2013-01-16 21:42:00,41.2,18.7,30.40,East,92,14.0,23.0,40,0.00,,SCT,0.00,VWS V14.01,2013-01-17 05:42:00,
2013-01-16 21:45:00,41.3,19.4,30.40,ENE,64,15.0,23.0,41,0.00,,SCT,0.00,VWS V14.01,2013-01-17 05:45:00,
2013-01-16 21:48:00,41.3,19.4,30.40,East,94,15.0,18.0,41,0.00,,SCT,0.00,VWS V14.01,2013-01-17 05:48:00,
2013-01-16 21:52:00,41.2,19.3,30.40,East,84,12.0,19.0,41,0.00,,SCT,0.00,VWS V14.01,2013-01-17 05:52:00,
2013-01-16 21:57:00,41.3,18.8,30.40,East,79,12.0,21.0,40,0.00,,SCT,0.00,VWS V14.01,2013-01-17 05:57:00,
2013-01-16 22:00:00,41.3,18.8,30.40,East,86,11.0,21.0,40,0.00,,SCT,0.00,VWS V14.01,2013-01-17 06:00:00,
2013-01-16 22:03:00,41.4,18.9,30.40,East,86,12.0,23.0,40,0.00,,SCT,0.00,VWS V14.01,2013-01-17 06:03:00,
2013-01-16 22:08:00,41.5,19.0,30.40,East,93,13.0,23.0,40,0.00,,SCT,0.00,VWS V14.01,2013-01-17 06:08:00,
2013-01-16 22:13:00,41.6,18.5,30.40,ENE,61,12.0,23.0,39,0.00,,SCT,0.00,VWS V14.01,2013-01-17 06:13:00,
2013-01-16 22:15:00,41.6,18.5,30.39,East,88,11.0,23.0,39,0.00,,SCT,0.00,VWS V14.01,2013-01-17 06:15:00,
2013-01-16 22:18:00,41.6,18.5,30.40,ENE,71,14.0,21.0,39,0.00,,SCT,0.00,VWS V14.01,2013-01-17 06:18:00,
2013-01-16 22:23:00,41.7,18.6,30.39,East,81,19.0,22.0,39,0.00,,SCT,0.00,VWS V14.01,2013-01-17 06:23:00,
2013-01-16 22:28:00,41.8,18.1,30.39,East,84,12.0,22.0,38,0.00,,SCT,0.00,VWS V14.01,2013-01-17 06:28:00,
2013-01-16 22:30:00,41.8,18.1,30.39,East,90,12.0,22.0,38,0.00,,SCT,0.00,VWS V14.01,2013-01-17 06:30:00,
2013-01-16 22:33:00,41.8,18.1,30.39,East,92,13.0,22.0,38,0.00,,SCT,0.00,VWS V14.01,2013-01-17 06:33:00,
2013-01-16 22:38:00,41.8,18.1,30.39,ENE,76,13.0,22.0,38,0.00,,SCT,0.00,VWS V14.01,2013-01-17 06:38:00,
2013-01-16 22:43:00,41.8,18.1,30.39,East,84,13.0,22.0,38,0.00,,SCT,0.00,VWS V14.01,2013-01-17 06:43:00,
2013-01-16 22:45:00,41.8,18.1,30.39,East,86,11.0,22.0,38,0.00,,SCT,0.00,VWS V14.01,2013-01-17 06:45:00,
2013-01-16 22:48:00,41.8,18.1,30.39,East,94,14.0,21.0,38,0.00,,SCT,0.00,VWS V14.01,2013-01-17 06:48:00,
2013-01-16 22:53:00,41.9,17.5,30.38,East,86,17.0,21.0,37,0.00,,SCT,0.00,VWS V14.01,2013-01-17 06:53:00,
2013-01-16 22:58:00,42.0,18.2,30.39,East,90,9.0,23.0,38,0.00,,SCT,0.00,VWS V14.01,2013-01-17 06:58:00,
2013-01-16 23:00:00,42.0,17.6,30.38,East,89,13.0,23.0,37,0.00,,SCT,0.00,VWS V14.01,2013-01-17 07:00:00,
2013-01-16 23:03:00,42.1,17.7,30.39,ESE,109,16.0,19.0,37,0.00,,SCT,0.00,VWS V14.01,2013-01-17 07:03:00,
2013-01-16 23:08:00,42.2,17.8,30.39,ESE,105,19.0,21.0,37,0.00,,SCT,0.00,VWS V14.01,2013-01-17 07:08:00,
2013-01-16 23:13:00,42.3,17.9,30.38,ESE,103,11.0,21.0,37,0.00,,SCT,0.00,VWS V14.01,2013-01-17 07:13:00,
2013-01-16 23:15:00,42.3,17.9,30.39,ESE,105,15.0,21.0,37,0.00,,SCT,0.00,VWS V14.01,2013-01-17 07:15:00,
2013-01-16 23:18:00,42.3,17.9,30.39,East,86,11.0,21.0,37,0.00,,SCT,0.00,VWS V14.01,2013-01-17 07:18:00,
2013-01-16 23:23:00,42.4,18.0,30.38,East,88,14.0,21.0,37,0.00,,SCT,0.00,VWS V14.01,2013-01-17 07:23:00,
2013-01-16 23:28:00,42.4,18.0,30.38,East,86,15.0,21.0,37,0.00,,SCT,0.00,VWS V14.01,2013-01-17 07:28:00,
2013-01-16 23:30:00,42.3,17.9,30.38,ENE,67,13.0,21.0,37,0.00,,SCT,0.00,VWS V14.01,2013-01-17 07:30:00,
2013-01-16 23:33:00,42.3,18.5,30.38,ENE,74,18.0,21.0,38,0.00,,SCT,0.00,VWS V14.01,2013-01-17 07:33:00,
2013-01-16 23:38:00,42.4,18.6,30.38,East,90,19.0,21.0,38,0.00,,SCT,0.00,VWS V14.01,2013-01-17 07:38:00,
2013-01-16 23:43:00,42.4,18.0,30.38,East,87,12.0,21.0,37,0.00,,SCT,0.00,VWS V14.01,2013-01-17 07:43:00,
2013-01-16 23:45:00,42.4,17.4,30.38,East,92,18.0,21.0,36,0.00,,SCT,0.00,VWS V14.01,2013-01-17 07:45:00,
2013-01-16 23:48:00,42.5,18.1,30.38,East,92,12.0,18.0,37,0.00,,SCT,0.00,VWS V14.01,2013-01-17 07:48:00,
2013-01-16 23:53:00,42.4,18.0,30.37,East,80,11.0,18.0,37,0.00,,SCT,0.00,VWS V14.01,2013-01-17 07:53:00,
2013-01-16 23:58:00,42.4,17.4,30.38,East,84,12.0,21.0,36,0.00,,SCT,0.00,VWS V14.01,2013-01-17 07:58:00,